sensor_id;sensor_type;location;lat;lon;timestamp;P1;durP1;ratioP1;P2;durP2;ratioP2
27612;SDS011;15036;48.094;-1.690;2023-06-22T00:01:27;9.95;;;5.47;;
27612;SDS011;15036;48.094;-1.690;2023-06-22T00:03:53;8.70;;;5.72;;
27612;SDS011;15036;48.094;-1.690;2023-06-22T00:06:19;7.65;;;5.40;;
27612;SDS011;15036;48.094;-1.690;2023-06-22T00:08:44;8.57;;;5.82;;
27612;SDS011;15036;48.094;-1.690;2023-06-22T00:11:10;9.90;;;5.43;;
27612;SDS011;15036;48.094;-1.690;2023-06-22T00:13:35;7.55;;;5.45;;
27612;SDS011;15036;48.094;-1.690;2023-06-22T00:16:00;10.05;;;6.00;;
27612;SDS011;15036;48.094;-1.690;2023-06-22T00:18:26;7.80;;;5.60;;
27612;SDS011;15036;48.094;-1.690;2023-06-22T00:20:53;9.57;;;5.57;;
27612;SDS011;15036;48.094;-1.690;2023-06-22T00:23:22;9.70;;;5.93;;
27612;SDS011;15036;48.094;-1.690;2023-06-22T00:25:49;8.70;;;5.75;;
27612;SDS011;15036;48.094;-1.690;2023-06-22T00:28:14;9.98;;;5.68;;
27612;SDS011;15036;48.094;-1.690;2023-06-22T00:30:40;8.32;;;5.93;;
27612;SDS011;15036;48.094;-1.690;2023-06-22T00:33:06;8.98;;;5.88;;
27612;SDS011;15036;48.094;-1.690;2023-06-22T00:35:32;11.13;;;6.50;;
27612;SDS011;15036;48.094;-1.690;2023-06-22T00:37:58;9.82;;;5.78;;
27612;SDS011;15036;48.094;-1.690;2023-06-22T00:40:26;11.15;;;6.60;;
27612;SDS011;15036;48.094;-1.690;2023-06-22T00:42:53;11.68;;;6.15;;
27612;SDS011;15036;48.094;-1.690;2023-06-22T00:45:19;9.57;;;6.38;;
27612;SDS011;15036;48.094;-1.690;2023-06-22T00:47:44;10.93;;;6.75;;
27612;SDS011;15036;48.094;-1.690;2023-06-22T00:50:10;8.88;;;6.43;;
27612;SDS011;15036;48.094;-1.690;2023-06-22T00:52:43;9.45;;;6.72;;
27612;SDS011;15036;48.094;-1.690;2023-06-22T00:55:09;10.13;;;6.72;;
27612;SDS011;15036;48.094;-1.690;2023-06-22T00:57:34;8.55;;;6.53;;
27612;SDS011;15036;48.094;-1.690;2023-06-22T01:00:02;9.40;;;6.55;;
27612;SDS011;15036;48.094;-1.690;2023-06-22T01:02:31;10.27;;;6.18;;
27612;SDS011;15036;48.094;-1.690;2023-06-22T01:04:57;10.18;;;6.60;;
27612;SDS011;15036;48.094;-1.690;2023-06-22T01:07:28;11.93;;;6.55;;
27612;SDS011;15036;48.094;-1.690;2023-06-22T01:10:08;11.20;;;6.07;;
27612;SDS011;15036;48.094;-1.690;2023-06-22T01:12:38;10.80;;;6.88;;
27612;SDS011;15036;48.094;-1.690;2023-06-22T01:15:10;11.18;;;6.35;;
27612;SDS011;15036;48.094;-1.690;2023-06-22T01:17:40;8.88;;;6.60;;
27612;SDS011;15036;48.094;-1.690;2023-06-22T01:20:08;8.27;;;6.00;;
27612;SDS011;15036;48.094;-1.690;2023-06-22T01:22:42;11.63;;;6.70;;
27612;SDS011;15036;48.094;-1.690;2023-06-22T01:25:20;9.82;;;5.95;;
27612;SDS011;15036;48.094;-1.690;2023-06-22T01:30:19;9.65;;;6.18;;
27612;SDS011;15036;48.094;-1.690;2023-06-22T01:32:45;8.93;;;6.07;;
27612;SDS011;15036;48.094;-1.690;2023-06-22T01:35:11;8.43;;;5.82;;
27612;SDS011;15036;48.094;-1.690;2023-06-22T01:37:38;10.25;;;6.35;;
27612;SDS011;15036;48.094;-1.690;2023-06-22T01:40:04;9.10;;;5.88;;
27612;SDS011;15036;48.094;-1.690;2023-06-22T01:42:32;10.15;;;6.20;;
27612;SDS011;15036;48.094;-1.690;2023-06-22T01:44:57;8.93;;;6.55;;
27612;SDS011;15036;48.094;-1.690;2023-06-22T01:47:23;7.78;;;6.03;;
27612;SDS011;15036;48.094;-1.690;2023-06-22T01:49:49;10.57;;;6.30;;
27612;SDS011;15036;48.094;-1.690;2023-06-22T01:52:18;7.82;;;5.68;;
27612;SDS011;15036;48.094;-1.690;2023-06-22T01:54:45;9.95;;;5.75;;
27612;SDS011;15036;48.094;-1.690;2023-06-22T01:57:11;8.15;;;5.57;;
27612;SDS011;15036;48.094;-1.690;2023-06-22T02:02:16;7.20;;;5.18;;
27612;SDS011;15036;48.094;-1.690;2023-06-22T02:07:17;9.25;;;5.60;;
27612;SDS011;15036;48.094;-1.690;2023-06-22T02:09:46;8.65;;;5.82;;
27612;SDS011;15036;48.094;-1.690;2023-06-22T02:12:17;7.03;;;5.72;;
27612;SDS011;15036;48.094;-1.690;2023-06-22T02:14:46;8.00;;;5.25;;
27612;SDS011;15036;48.094;-1.690;2023-06-22T02:17:12;8.15;;;5.65;;
27612;SDS011;15036;48.094;-1.690;2023-06-22T02:19:38;9.82;;;5.13;;
27612;SDS011;15036;48.094;-1.690;2023-06-22T02:22:05;7.90;;;5.07;;
27612;SDS011;15036;48.094;-1.690;2023-06-22T02:24:31;7.60;;;4.78;;
27612;SDS011;15036;48.094;-1.690;2023-06-22T02:26:58;7.25;;;4.70;;
27612;SDS011;15036;48.094;-1.690;2023-06-22T02:29:24;7.15;;;5.22;;
27612;SDS011;15036;48.094;-1.690;2023-06-22T02:31:50;6.55;;;4.82;;
27612;SDS011;15036;48.094;-1.690;2023-06-22T02:34:15;6.18;;;4.35;;
27612;SDS011;15036;48.094;-1.690;2023-06-22T02:36:46;8.63;;;4.65;;
27612;SDS011;15036;48.094;-1.690;2023-06-22T02:39:19;5.93;;;4.50;;
27612;SDS011;15036;48.094;-1.690;2023-06-22T02:41:48;8.15;;;5.00;;
27612;SDS011;15036;48.094;-1.690;2023-06-22T02:44:15;7.03;;;5.10;;
27612;SDS011;15036;48.094;-1.690;2023-06-22T02:46:42;8.68;;;4.80;;
27612;SDS011;15036;48.094;-1.690;2023-06-22T02:49:07;8.43;;;4.63;;
27612;SDS011;15036;48.094;-1.690;2023-06-22T02:51:33;9.15;;;4.80;;
27612;SDS011;15036;48.094;-1.690;2023-06-22T02:54:01;8.00;;;4.80;;
27612;SDS011;15036;48.094;-1.690;2023-06-22T02:56:28;5.75;;;4.38;;
27612;SDS011;15036;48.094;-1.690;2023-06-22T02:58:55;5.72;;;4.13;;
27612;SDS011;15036;48.094;-1.690;2023-06-22T03:01:25;6.18;;;4.55;;
27612;SDS011;15036;48.094;-1.690;2023-06-22T03:03:53;5.88;;;4.28;;
27612;SDS011;15036;48.094;-1.690;2023-06-22T03:06:19;6.45;;;4.47;;
27612;SDS011;15036;48.094;-1.690;2023-06-22T03:08:48;5.88;;;4.40;;
27612;SDS011;15036;48.094;-1.690;2023-06-22T03:11:15;6.70;;;4.55;;
27612;SDS011;15036;48.094;-1.690;2023-06-22T03:13:40;7.07;;;4.60;;
27612;SDS011;15036;48.094;-1.690;2023-06-22T03:16:07;7.43;;;4.53;;
27612;SDS011;15036;48.094;-1.690;2023-06-22T03:18:32;6.65;;;5.18;;
27612;SDS011;15036;48.094;-1.690;2023-06-22T03:20:57;7.28;;;5.47;;
27612;SDS011;15036;48.094;-1.690;2023-06-22T03:23:23;8.45;;;5.32;;
27612;SDS011;15036;48.094;-1.690;2023-06-22T03:25:49;10.75;;;5.25;;
27612;SDS011;15036;48.094;-1.690;2023-06-22T03:28:14;8.15;;;4.95;;
27612;SDS011;15036;48.094;-1.690;2023-06-22T03:30:40;8.55;;;5.00;;
27612;SDS011;15036;48.094;-1.690;2023-06-22T03:33:05;8.68;;;5.28;;
27612;SDS011;15036;48.094;-1.690;2023-06-22T03:35:31;12.75;;;5.28;;
27612;SDS011;15036;48.094;-1.690;2023-06-22T03:37:56;8.70;;;5.03;;
27612;SDS011;15036;48.094;-1.690;2023-06-22T03:40:21;7.75;;;5.35;;
27612;SDS011;15036;48.094;-1.690;2023-06-22T03:42:48;9.52;;;5.22;;
27612;SDS011;15036;48.094;-1.690;2023-06-22T03:45:13;6.18;;;4.35;;
27612;SDS011;15036;48.094;-1.690;2023-06-22T03:47:38;6.90;;;4.65;;
27612;SDS011;15036;48.094;-1.690;2023-06-22T03:50:04;7.68;;;4.78;;
27612;SDS011;15036;48.094;-1.690;2023-06-22T03:52:31;8.05;;;4.88;;
27612;SDS011;15036;48.094;-1.690;2023-06-22T03:54:56;6.10;;;4.95;;
27612;SDS011;15036;48.094;-1.690;2023-06-22T03:57:23;7.05;;;4.60;;
27612;SDS011;15036;48.094;-1.690;2023-06-22T03:59:48;10.82;;;6.03;;
27612;SDS011;15036;48.094;-1.690;2023-06-22T04:02:13;7.05;;;4.97;;
27612;SDS011;15036;48.094;-1.690;2023-06-22T04:04:39;6.43;;;4.65;;
27612;SDS011;15036;48.094;-1.690;2023-06-22T04:07:05;8.27;;;4.78;;
27612;SDS011;15036;48.094;-1.690;2023-06-22T04:09:30;7.70;;;5.00;;
27612;SDS011;15036;48.094;-1.690;2023-06-22T04:11:56;7.53;;;4.70;;
27612;SDS011;15036;48.094;-1.690;2023-06-22T04:14:21;7.05;;;4.60;;
27612;SDS011;15036;48.094;-1.690;2023-06-22T04:16:46;7.25;;;4.65;;
27612;SDS011;15036;48.094;-1.690;2023-06-22T04:19:12;8.10;;;4.70;;
27612;SDS011;15036;48.094;-1.690;2023-06-22T04:21:41;7.03;;;4.68;;
27612;SDS011;15036;48.094;-1.690;2023-06-22T04:24:07;7.60;;;4.78;;
27612;SDS011;15036;48.094;-1.690;2023-06-22T04:26:33;6.63;;;4.68;;
27612;SDS011;15036;48.094;-1.690;2023-06-22T04:29:02;5.22;;;4.40;;
27612;SDS011;15036;48.094;-1.690;2023-06-22T04:31:30;5.78;;;4.38;;
27612;SDS011;15036;48.094;-1.690;2023-06-22T04:33:57;5.95;;;4.50;;
27612;SDS011;15036;48.094;-1.690;2023-06-22T04:36:40;7.65;;;4.50;;
27612;SDS011;15036;48.094;-1.690;2023-06-22T04:39:06;9.15;;;4.65;;
27612;SDS011;15036;48.094;-1.690;2023-06-22T04:41:34;7.00;;;4.20;;
27612;SDS011;15036;48.094;-1.690;2023-06-22T04:44:12;7.03;;;4.50;;
27612;SDS011;15036;48.094;-1.690;2023-06-22T04:46:39;8.00;;;5.28;;
27612;SDS011;15036;48.094;-1.690;2023-06-22T04:49:05;5.32;;;4.40;;
27612;SDS011;15036;48.094;-1.690;2023-06-22T04:51:34;6.90;;;4.72;;
27612;SDS011;15036;48.094;-1.690;2023-06-22T04:54:06;9.88;;;4.50;;
27612;SDS011;15036;48.094;-1.690;2023-06-22T04:56:33;8.40;;;4.40;;
27612;SDS011;15036;48.094;-1.690;2023-06-22T04:58:58;5.32;;;4.50;;
27612;SDS011;15036;48.094;-1.690;2023-06-22T05:01:24;7.68;;;4.80;;
27612;SDS011;15036;48.094;-1.690;2023-06-22T05:03:50;6.65;;;4.70;;
27612;SDS011;15036;48.094;-1.690;2023-06-22T05:06:16;7.72;;;4.85;;
27612;SDS011;15036;48.094;-1.690;2023-06-22T05:08:42;8.05;;;5.28;;
27612;SDS011;15036;48.094;-1.690;2023-06-22T05:11:08;7.75;;;5.32;;
27612;SDS011;15036;48.094;-1.690;2023-06-22T05:13:34;8.80;;;5.13;;
27612;SDS011;15036;48.094;-1.690;2023-06-22T05:15:59;8.07;;;4.93;;
27612;SDS011;15036;48.094;-1.690;2023-06-22T05:18:30;6.60;;;5.20;;
27612;SDS011;15036;48.094;-1.690;2023-06-22T05:20:56;8.82;;;5.25;;
27612;SDS011;15036;48.094;-1.690;2023-06-22T05:23:22;8.52;;;5.38;;
27612;SDS011;15036;48.094;-1.690;2023-06-22T05:25:47;7.30;;;4.93;;
27612;SDS011;15036;48.094;-1.690;2023-06-22T05:28:12;7.25;;;4.93;;
27612;SDS011;15036;48.094;-1.690;2023-06-22T05:30:38;7.22;;;4.82;;
27612;SDS011;15036;48.094;-1.690;2023-06-22T05:33:04;6.95;;;4.80;;
27612;SDS011;15036;48.094;-1.690;2023-06-22T05:35:29;8.38;;;4.70;;
27612;SDS011;15036;48.094;-1.690;2023-06-22T05:37:55;6.97;;;4.53;;
27612;SDS011;15036;48.094;-1.690;2023-06-22T05:40:20;7.85;;;4.68;;
27612;SDS011;15036;48.094;-1.690;2023-06-22T05:42:46;9.10;;;4.55;;
27612;SDS011;15036;48.094;-1.690;2023-06-22T05:45:12;6.72;;;4.70;;
27612;SDS011;15036;48.094;-1.690;2023-06-22T05:47:37;7.13;;;4.50;;
27612;SDS011;15036;48.094;-1.690;2023-06-22T05:50:03;7.90;;;4.78;;
27612;SDS011;15036;48.094;-1.690;2023-06-22T05:54:59;7.38;;;4.50;;
27612;SDS011;15036;48.094;-1.690;2023-06-22T05:57:24;7.82;;;4.15;;
27612;SDS011;15036;48.094;-1.690;2023-06-22T05:59:49;7.82;;;4.10;;
27612;SDS011;15036;48.094;-1.690;2023-06-22T06:02:15;9.82;;;4.63;;
27612;SDS011;15036;48.094;-1.690;2023-06-22T06:04:40;6.10;;;4.18;;
27612;SDS011;15036;48.094;-1.690;2023-06-22T06:07:05;7.95;;;4.60;;
27612;SDS011;15036;48.094;-1.690;2023-06-22T06:09:31;7.97;;;4.40;;
27612;SDS011;15036;48.094;-1.690;2023-06-22T06:11:56;5.85;;;4.47;;
27612;SDS011;15036;48.094;-1.690;2023-06-22T06:14:22;7.22;;;4.45;;
27612;SDS011;15036;48.094;-1.690;2023-06-22T06:16:48;7.80;;;4.40;;
27612;SDS011;15036;48.094;-1.690;2023-06-22T06:19:14;9.63;;;4.50;;
27612;SDS011;15036;48.094;-1.690;2023-06-22T06:21:40;6.35;;;4.50;;
27612;SDS011;15036;48.094;-1.690;2023-06-22T06:24:05;5.40;;;4.25;;
27612;SDS011;15036;48.094;-1.690;2023-06-22T06:26:31;8.35;;;4.20;;
27612;SDS011;15036;48.094;-1.690;2023-06-22T06:28:58;8.30;;;4.40;;
27612;SDS011;15036;48.094;-1.690;2023-06-22T06:31:25;6.07;;;4.50;;
27612;SDS011;15036;48.094;-1.690;2023-06-22T06:33:52;8.32;;;4.38;;
27612;SDS011;15036;48.094;-1.690;2023-06-22T06:36:19;6.53;;;3.70;;
27612;SDS011;15036;48.094;-1.690;2023-06-22T06:38:44;8.68;;;4.07;;
27612;SDS011;15036;48.094;-1.690;2023-06-22T06:41:11;6.22;;;4.00;;
27612;SDS011;15036;48.094;-1.690;2023-06-22T06:43:37;7.35;;;4.40;;
27612;SDS011;15036;48.094;-1.690;2023-06-22T06:46:02;8.27;;;4.22;;
27612;SDS011;15036;48.094;-1.690;2023-06-22T06:48:28;7.10;;;3.90;;
27612;SDS011;15036;48.094;-1.690;2023-06-22T06:50:53;6.07;;;4.25;;
27612;SDS011;15036;48.094;-1.690;2023-06-22T06:53:18;5.20;;;3.72;;
27612;SDS011;15036;48.094;-1.690;2023-06-22T06:55:44;6.60;;;4.22;;
27612;SDS011;15036;48.094;-1.690;2023-06-22T06:58:10;6.85;;;4.18;;
27612;SDS011;15036;48.094;-1.690;2023-06-22T07:00:38;6.35;;;4.03;;
27612;SDS011;15036;48.094;-1.690;2023-06-22T07:03:04;5.30;;;3.97;;
27612;SDS011;15036;48.094;-1.690;2023-06-22T07:05:29;5.97;;;3.88;;
27612;SDS011;15036;48.094;-1.690;2023-06-22T07:07:54;8.40;;;4.25;;
27612;SDS011;15036;48.094;-1.690;2023-06-22T07:10:20;8.63;;;4.38;;
27612;SDS011;15036;48.094;-1.690;2023-06-22T07:12:46;6.63;;;4.00;;
27612;SDS011;15036;48.094;-1.690;2023-06-22T07:15:11;6.93;;;4.07;;
27612;SDS011;15036;48.094;-1.690;2023-06-22T07:17:38;8.60;;;4.00;;
27612;SDS011;15036;48.094;-1.690;2023-06-22T07:20:06;7.00;;;4.15;;
27612;SDS011;15036;48.094;-1.690;2023-06-22T07:22:35;6.82;;;4.20;;
27612;SDS011;15036;48.094;-1.690;2023-06-22T07:25:00;6.20;;;3.90;;
27612;SDS011;15036;48.094;-1.690;2023-06-22T07:27:29;7.85;;;4.07;;
27612;SDS011;15036;48.094;-1.690;2023-06-22T07:29:58;7.77;;;3.83;;
27612;SDS011;15036;48.094;-1.690;2023-06-22T07:32:24;6.50;;;3.97;;
27612;SDS011;15036;48.094;-1.690;2023-06-22T07:34:49;5.68;;;3.92;;
27612;SDS011;15036;48.094;-1.690;2023-06-22T07:37:15;5.38;;;3.90;;
27612;SDS011;15036;48.094;-1.690;2023-06-22T07:39:40;6.22;;;3.83;;
27612;SDS011;15036;48.094;-1.690;2023-06-22T07:42:07;7.32;;;3.60;;
27612;SDS011;15036;48.094;-1.690;2023-06-22T07:44:32;5.78;;;3.55;;
27612;SDS011;15036;48.094;-1.690;2023-06-22T07:46:58;5.68;;;3.80;;
27612;SDS011;15036;48.094;-1.690;2023-06-22T07:49:23;6.68;;;3.95;;
27612;SDS011;15036;48.094;-1.690;2023-06-22T07:51:49;7.15;;;3.97;;
27612;SDS011;15036;48.094;-1.690;2023-06-22T07:54:14;6.32;;;3.90;;
27612;SDS011;15036;48.094;-1.690;2023-06-22T07:56:40;8.05;;;3.92;;
27612;SDS011;15036;48.094;-1.690;2023-06-22T07:59:06;5.53;;;3.75;;
27612;SDS011;15036;48.094;-1.690;2023-06-22T08:01:31;7.70;;;4.20;;
27612;SDS011;15036;48.094;-1.690;2023-06-22T08:03:57;7.60;;;3.80;;
27612;SDS011;15036;48.094;-1.690;2023-06-22T08:06:22;7.45;;;4.10;;
27612;SDS011;15036;48.094;-1.690;2023-06-22T08:08:47;6.05;;;3.58;;
27612;SDS011;15036;48.094;-1.690;2023-06-22T08:11:14;6.18;;;3.60;;
27612;SDS011;15036;48.094;-1.690;2023-06-22T08:13:39;5.72;;;3.45;;
27612;SDS011;15036;48.094;-1.690;2023-06-22T08:16:04;7.10;;;3.60;;
27612;SDS011;15036;48.094;-1.690;2023-06-22T08:18:30;8.85;;;3.92;;
27612;SDS011;15036;48.094;-1.690;2023-06-22T08:20:55;7.22;;;4.10;;
27612;SDS011;15036;48.094;-1.690;2023-06-22T08:23:21;7.20;;;3.45;;
27612;SDS011;15036;48.094;-1.690;2023-06-22T08:25:48;6.80;;;3.45;;
27612;SDS011;15036;48.094;-1.690;2023-06-22T08:28:15;5.80;;;3.47;;
27612;SDS011;15036;48.094;-1.690;2023-06-22T08:30:40;5.95;;;3.80;;
27612;SDS011;15036;48.094;-1.690;2023-06-22T08:33:06;7.07;;;3.67;;
27612;SDS011;15036;48.094;-1.690;2023-06-22T08:35:31;7.18;;;3.63;;
27612;SDS011;15036;48.094;-1.690;2023-06-22T08:37:56;4.80;;;3.30;;
27612;SDS011;15036;48.094;-1.690;2023-06-22T08:40:23;7.45;;;3.50;;
27612;SDS011;15036;48.094;-1.690;2023-06-22T08:42:49;8.05;;;3.60;;
27612;SDS011;15036;48.094;-1.690;2023-06-22T08:45:14;6.28;;;3.33;;
27612;SDS011;15036;48.094;-1.690;2023-06-22T08:47:40;7.25;;;3.10;;
27612;SDS011;15036;48.094;-1.690;2023-06-22T08:50:07;8.13;;;3.30;;
27612;SDS011;15036;48.094;-1.690;2023-06-22T08:52:33;6.55;;;3.60;;
27612;SDS011;15036;48.094;-1.690;2023-06-22T08:54:59;9.38;;;3.42;;
27612;SDS011;15036;48.094;-1.690;2023-06-22T08:57:25;5.85;;;3.35;;
27612;SDS011;15036;48.094;-1.690;2023-06-22T08:59:50;5.30;;;3.30;;
27612;SDS011;15036;48.094;-1.690;2023-06-22T09:02:17;6.72;;;3.45;;
27612;SDS011;15036;48.094;-1.690;2023-06-22T09:04:44;4.80;;;3.33;;
27612;SDS011;15036;48.094;-1.690;2023-06-22T09:07:10;7.13;;;5.40;;
27612;SDS011;15036;48.094;-1.690;2023-06-22T09:09:36;5.40;;;3.03;;
27612;SDS011;15036;48.094;-1.690;2023-06-22T09:12:02;5.78;;;3.40;;
27612;SDS011;15036;48.094;-1.690;2023-06-22T09:14:27;4.78;;;3.30;;
27612;SDS011;15036;48.094;-1.690;2023-06-22T09:16:53;4.03;;;2.90;;
27612;SDS011;15036;48.094;-1.690;2023-06-22T09:19:18;5.15;;;3.15;;
27612;SDS011;15036;48.094;-1.690;2023-06-22T09:21:43;7.20;;;3.30;;
27612;SDS011;15036;48.094;-1.690;2023-06-22T09:24:09;4.55;;;3.22;;
27612;SDS011;15036;48.094;-1.690;2023-06-22T09:26:34;4.85;;;3.17;;
27612;SDS011;15036;48.094;-1.690;2023-06-22T09:29:00;6.90;;;3.10;;
27612;SDS011;15036;48.094;-1.690;2023-06-22T09:31:26;5.53;;;3.13;;
27612;SDS011;15036;48.094;-1.690;2023-06-22T09:33:52;5.35;;;2.90;;
27612;SDS011;15036;48.094;-1.690;2023-06-22T09:36:19;3.92;;;2.92;;
27612;SDS011;15036;48.094;-1.690;2023-06-22T09:38:44;5.50;;;3.35;;
27612;SDS011;15036;48.094;-1.690;2023-06-22T09:41:10;5.40;;;3.10;;
27612;SDS011;15036;48.094;-1.690;2023-06-22T09:43:35;4.38;;;3.15;;
27612;SDS011;15036;48.094;-1.690;2023-06-22T09:46:01;4.75;;;2.80;;
27612;SDS011;15036;48.094;-1.690;2023-06-22T09:48:27;6.68;;;3.03;;
27612;SDS011;15036;48.094;-1.690;2023-06-22T09:50:53;5.00;;;2.95;;
27612;SDS011;15036;48.094;-1.690;2023-06-22T09:53:19;5.22;;;3.13;;
27612;SDS011;15036;48.094;-1.690;2023-06-22T09:55:44;5.43;;;3.20;;
27612;SDS011;15036;48.094;-1.690;2023-06-22T09:58:09;5.50;;;3.10;;
27612;SDS011;15036;48.094;-1.690;2023-06-22T10:00:35;3.72;;;2.80;;
27612;SDS011;15036;48.094;-1.690;2023-06-22T10:03:00;3.97;;;2.80;;
27612;SDS011;15036;48.094;-1.690;2023-06-22T10:05:25;5.45;;;3.15;;
27612;SDS011;15036;48.094;-1.690;2023-06-22T10:07:51;6.68;;;3.20;;
27612;SDS011;15036;48.094;-1.690;2023-06-22T10:10:16;5.15;;;3.05;;
27612;SDS011;15036;48.094;-1.690;2023-06-22T10:13:06;4.75;;;3.42;;
27612;SDS011;15036;48.094;-1.690;2023-06-22T10:15:33;5.70;;;3.03;;
27612;SDS011;15036;48.094;-1.690;2023-06-22T10:17:58;6.10;;;3.30;;
27612;SDS011;15036;48.094;-1.690;2023-06-22T10:20:23;4.72;;;3.03;;
27612;SDS011;15036;48.094;-1.690;2023-06-22T10:22:50;5.57;;;3.20;;
27612;SDS011;15036;48.094;-1.690;2023-06-22T10:25:17;5.97;;;3.20;;
27612;SDS011;15036;48.094;-1.690;2023-06-22T10:27:42;5.63;;;3.03;;
27612;SDS011;15036;48.094;-1.690;2023-06-22T10:30:11;5.03;;;3.17;;
27612;SDS011;15036;48.094;-1.690;2023-06-22T10:32:37;4.03;;;3.05;;
27612;SDS011;15036;48.094;-1.690;2023-06-22T10:35:03;5.28;;;3.10;;
27612;SDS011;15036;48.094;-1.690;2023-06-22T10:37:29;4.85;;;2.95;;
27612;SDS011;15036;48.094;-1.690;2023-06-22T10:39:54;4.82;;;2.97;;
27612;SDS011;15036;48.094;-1.690;2023-06-22T10:42:20;4.68;;;2.95;;
27612;SDS011;15036;48.094;-1.690;2023-06-22T10:44:45;6.28;;;3.20;;
27612;SDS011;15036;48.094;-1.690;2023-06-22T10:47:11;6.70;;;3.28;;
27612;SDS011;15036;48.094;-1.690;2023-06-22T10:49:39;5.78;;;4.07;;
27612;SDS011;15036;48.094;-1.690;2023-06-22T10:52:06;4.75;;;3.33;;
27612;SDS011;15036;48.094;-1.690;2023-06-22T10:54:33;4.45;;;3.13;;
27612;SDS011;15036;48.094;-1.690;2023-06-22T10:56:59;4.35;;;3.08;;
27612;SDS011;15036;48.094;-1.690;2023-06-22T10:59:25;4.68;;;3.17;;
27612;SDS011;15036;48.094;-1.690;2023-06-22T11:01:51;7.13;;;3.30;;
27612;SDS011;15036;48.094;-1.690;2023-06-22T11:04:16;4.85;;;3.00;;
27612;SDS011;15036;48.094;-1.690;2023-06-22T11:06:42;6.50;;;3.33;;
27612;SDS011;15036;48.094;-1.690;2023-06-22T11:09:08;7.75;;;3.38;;
27612;SDS011;15036;48.094;-1.690;2023-06-22T11:11:34;5.25;;;3.38;;
27612;SDS011;15036;48.094;-1.690;2023-06-22T11:13:59;5.72;;;3.17;;
27612;SDS011;15036;48.094;-1.690;2023-06-22T11:16:24;6.13;;;3.22;;
27612;SDS011;15036;48.094;-1.690;2023-06-22T11:18:50;6.15;;;3.35;;
27612;SDS011;15036;48.094;-1.690;2023-06-22T11:21:15;5.68;;;3.22;;
27612;SDS011;15036;48.094;-1.690;2023-06-22T11:23:41;4.10;;;2.92;;
27612;SDS011;15036;48.094;-1.690;2023-06-22T11:26:07;5.50;;;3.55;;
27612;SDS011;15036;48.094;-1.690;2023-06-22T11:28:32;4.78;;;3.05;;
27612;SDS011;15036;48.094;-1.690;2023-06-22T11:30:58;5.35;;;3.33;;
27612;SDS011;15036;48.094;-1.690;2023-06-22T11:33:23;5.03;;;3.42;;
27612;SDS011;15036;48.094;-1.690;2023-06-22T11:35:49;5.63;;;3.25;;
27612;SDS011;15036;48.094;-1.690;2023-06-22T11:38:14;6.43;;;3.25;;
27612;SDS011;15036;48.094;-1.690;2023-06-22T11:40:40;4.93;;;3.20;;
27612;SDS011;15036;48.094;-1.690;2023-06-22T11:43:05;6.25;;;3.38;;
27612;SDS011;15036;48.094;-1.690;2023-06-22T11:45:31;4.90;;;3.03;;
27612;SDS011;15036;48.094;-1.690;2023-06-22T11:47:56;6.97;;;3.53;;
27612;SDS011;15036;48.094;-1.690;2023-06-22T11:50:21;5.75;;;3.10;;
27612;SDS011;15036;48.094;-1.690;2023-06-22T11:52:47;6.35;;;2.90;;
27612;SDS011;15036;48.094;-1.690;2023-06-22T11:55:12;5.30;;;3.25;;
27612;SDS011;15036;48.094;-1.690;2023-06-22T11:57:38;3.92;;;2.80;;
27612;SDS011;15036;48.094;-1.690;2023-06-22T12:00:16;4.88;;;3.20;;
27612;SDS011;15036;48.094;-1.690;2023-06-22T12:02:42;4.60;;;3.20;;
27612;SDS011;15036;48.094;-1.690;2023-06-22T12:05:09;4.90;;;3.33;;
27612;SDS011;15036;48.094;-1.690;2023-06-22T12:07:34;6.35;;;3.30;;
27612;SDS011;15036;48.094;-1.690;2023-06-22T12:10:00;4.32;;;3.45;;
27612;SDS011;15036;48.094;-1.690;2023-06-22T12:12:26;6.05;;;3.20;;
27612;SDS011;15036;48.094;-1.690;2023-06-22T12:14:51;7.07;;;3.95;;
27612;SDS011;15036;48.094;-1.690;2023-06-22T12:17:16;4.28;;;3.70;;
27612;SDS011;15036;48.094;-1.690;2023-06-22T12:19:42;6.88;;;3.72;;
27612;SDS011;15036;48.094;-1.690;2023-06-22T12:22:07;6.93;;;4.05;;
27612;SDS011;15036;48.094;-1.690;2023-06-22T12:24:32;5.82;;;4.22;;
27612;SDS011;15036;48.094;-1.690;2023-06-22T12:26:58;7.45;;;4.35;;
27612;SDS011;15036;48.094;-1.690;2023-06-22T12:29:23;6.38;;;4.10;;
27612;SDS011;15036;48.094;-1.690;2023-06-22T12:31:49;6.93;;;4.13;;
27612;SDS011;15036;48.094;-1.690;2023-06-22T12:34:14;5.90;;;4.20;;
27612;SDS011;15036;48.094;-1.690;2023-06-22T12:36:39;5.82;;;3.53;;
27612;SDS011;15036;48.094;-1.690;2023-06-22T12:39:05;7.43;;;3.80;;
27612;SDS011;15036;48.094;-1.690;2023-06-22T12:41:30;7.78;;;4.03;;
27612;SDS011;15036;48.094;-1.690;2023-06-22T12:43:56;4.32;;;3.47;;
27612;SDS011;15036;48.094;-1.690;2023-06-22T12:46:21;7.80;;;3.92;;
27612;SDS011;15036;48.094;-1.690;2023-06-22T12:48:46;7.18;;;3.55;;
27612;SDS011;15036;48.094;-1.690;2023-06-22T12:51:12;7.25;;;3.63;;
27612;SDS011;15036;48.094;-1.690;2023-06-22T12:53:46;6.90;;;3.80;;
27612;SDS011;15036;48.094;-1.690;2023-06-22T12:56:12;4.72;;;3.50;;
27612;SDS011;15036;48.094;-1.690;2023-06-22T12:58:37;6.13;;;3.60;;
27612;SDS011;15036;48.094;-1.690;2023-06-22T13:01:02;5.38;;;3.70;;
27612;SDS011;15036;48.094;-1.690;2023-06-22T13:03:28;5.38;;;3.50;;
27612;SDS011;15036;48.094;-1.690;2023-06-22T13:05:53;4.15;;;3.33;;
27612;SDS011;15036;48.094;-1.690;2023-06-22T13:08:19;6.40;;;3.58;;
27612;SDS011;15036;48.094;-1.690;2023-06-22T13:10:44;5.68;;;3.30;;
27612;SDS011;15036;48.094;-1.690;2023-06-22T13:13:10;6.03;;;3.50;;
27612;SDS011;15036;48.094;-1.690;2023-06-22T13:15:35;4.82;;;3.35;;
27612;SDS011;15036;48.094;-1.690;2023-06-22T13:18:00;4.57;;;2.92;;
27612;SDS011;15036;48.094;-1.690;2023-06-22T13:20:26;3.92;;;3.17;;
27612;SDS011;15036;48.094;-1.690;2023-06-22T13:22:53;4.28;;;2.97;;
27612;SDS011;15036;48.094;-1.690;2023-06-22T13:25:19;4.25;;;3.00;;
27612;SDS011;15036;48.094;-1.690;2023-06-22T13:27:47;4.28;;;3.03;;
27612;SDS011;15036;48.094;-1.690;2023-06-22T13:30:12;3.90;;;2.80;;
27612;SDS011;15036;48.094;-1.690;2023-06-22T13:32:38;5.85;;;2.65;;
27612;SDS011;15036;48.094;-1.690;2023-06-22T13:35:06;4.18;;;2.75;;
27612;SDS011;15036;48.094;-1.690;2023-06-22T13:37:32;4.13;;;3.13;;
27612;SDS011;15036;48.094;-1.690;2023-06-22T13:39:58;4.72;;;2.88;;
27612;SDS011;15036;48.094;-1.690;2023-06-22T13:42:24;4.10;;;3.00;;
27612;SDS011;15036;48.094;-1.690;2023-06-22T13:44:50;4.75;;;2.90;;
27612;SDS011;15036;48.094;-1.690;2023-06-22T13:47:15;3.47;;;2.67;;
27612;SDS011;15036;48.094;-1.690;2023-06-22T13:49:40;5.05;;;2.72;;
27612;SDS011;15036;48.094;-1.690;2023-06-22T13:52:06;4.88;;;2.50;;
27612;SDS011;15036;48.094;-1.690;2023-06-22T13:54:35;3.25;;;2.42;;
27612;SDS011;15036;48.094;-1.690;2023-06-22T13:57:01;3.85;;;2.55;;
27612;SDS011;15036;48.094;-1.690;2023-06-22T13:59:27;4.28;;;2.50;;
27612;SDS011;15036;48.094;-1.690;2023-06-22T14:01:53;4.88;;;2.60;;
27612;SDS011;15036;48.094;-1.690;2023-06-22T14:04:18;4.22;;;2.38;;
27612;SDS011;15036;48.094;-1.690;2023-06-22T14:06:45;6.28;;;2.83;;
27612;SDS011;15036;48.094;-1.690;2023-06-22T14:09:10;4.57;;;2.53;;
27612;SDS011;15036;48.094;-1.690;2023-06-22T14:11:36;4.10;;;2.50;;
27612;SDS011;15036;48.094;-1.690;2023-06-22T14:14:02;4.47;;;2.28;;
27612;SDS011;15036;48.094;-1.690;2023-06-22T14:16:27;4.00;;;2.10;;
27612;SDS011;15036;48.094;-1.690;2023-06-22T14:18:52;5.13;;;2.10;;
27612;SDS011;15036;48.094;-1.690;2023-06-22T14:21:18;8.15;;;2.42;;
27612;SDS011;15036;48.094;-1.690;2023-06-22T14:23:44;3.67;;;2.22;;
27612;SDS011;15036;48.094;-1.690;2023-06-22T14:26:14;4.70;;;2.63;;
27612;SDS011;15036;48.094;-1.690;2023-06-22T14:28:39;4.50;;;2.72;;
27612;SDS011;15036;48.094;-1.690;2023-06-22T14:31:05;3.15;;;2.10;;
27612;SDS011;15036;48.094;-1.690;2023-06-22T14:33:30;2.80;;;2.30;;
27612;SDS011;15036;48.094;-1.690;2023-06-22T14:35:56;3.97;;;2.33;;
27612;SDS011;15036;48.094;-1.690;2023-06-22T14:38:21;3.47;;;2.15;;